Terminal Aerodrome Forecast
Issued by NWS

Home | Current Version | Previous Version | Text Only | Print | Product List | Glossary On
Versions: 1 2 3 4 5 6 7 8 9 10 11 12 13 14 15 16 17 18 19 20 21 22 23 24 25 26 27
574
FTUS43 KDLH 172010 AAA
TAFHIB
TAF AMD
KHIB 172010Z 1720/1818 34011G17KT P6SM VCSH OVC010
     FM172100 34010G18KT P6SM OVC015
     FM180200 33007KT P6SM BKN035
     FM180600 32004KT 3SM BR SCT035
     FM181400 32004KT P6SM SCT060=

USA.gov is the U.S. government's official web portal to all federal, state and local government web resources and services.